sensor_id;sensor_type;location;lat;lon;timestamp;pressure;altitude;pressure_sealevel;temperature;humidity
51986;BME280;38002;53.296;6.600;2023-03-18T00:02:22;100885.56;;;10.32;78.29
51986;BME280;38002;53.296;6.600;2023-03-18T00:07:22;100887.44;;;10.31;78.46
51986;BME280;38002;53.296;6.600;2023-03-18T00:12:23;100883.56;;;10.34;78.92
51986;BME280;38002;53.296;6.600;2023-03-18T00:17:24;100877.81;;;10.37;78.54
51986;BME280;38002;53.296;6.600;2023-03-18T00:22:25;100893.78;;;10.40;78.47
51986;BME280;38002;53.296;6.600;2023-03-18T00:27:25;100896.19;;;10.43;78.20
51986;BME280;38002;53.296;6.600;2023-03-18T00:32:27;100903.03;;;10.47;78.64
51986;BME280;38002;53.296;6.600;2023-03-18T00:37:28;100891.66;;;10.52;78.29
51986;BME280;38002;53.296;6.600;2023-03-18T00:42:34;100892.19;;;10.55;77.97
51986;BME280;38002;53.296;6.600;2023-03-18T00:47:39;100892.88;;;10.57;78.13
51986;BME280;38002;53.296;6.600;2023-03-18T00:52:39;100907.16;;;10.59;78.24
51986;BME280;38002;53.296;6.600;2023-03-18T00:57:40;100906.47;;;10.57;78.24
51986;BME280;38002;53.296;6.600;2023-03-18T01:02:41;100903.06;;;10.55;78.30
51986;BME280;38002;53.296;6.600;2023-03-18T01:07:42;100904.06;;;10.54;79.06
51986;BME280;38002;53.296;6.600;2023-03-18T01:12:44;100893.38;;;10.53;78.46
51986;BME280;38002;53.296;6.600;2023-03-18T01:17:48;100902.53;;;10.52;78.13
51986;BME280;38002;53.296;6.600;2023-03-18T01:22:49;100903.69;;;10.49;78.67
51986;BME280;38002;53.296;6.600;2023-03-18T01:27:50;100906.41;;;10.49;78.13
51986;BME280;38002;53.296;6.600;2023-03-18T01:32:51;100920.00;;;10.49;78.34
51986;BME280;38002;53.296;6.600;2023-03-18T01:37:53;100903.16;;;10.45;78.42
51986;BME280;38002;53.296;6.600;2023-03-18T01:43:01;100900.25;;;10.39;78.46
51986;BME280;38002;53.296;6.600;2023-03-18T01:48:04;100904.06;;;10.28;78.24
51986;BME280;38002;53.296;6.600;2023-03-18T01:53:09;100913.19;;;10.19;78.75
51986;BME280;38002;53.296;6.600;2023-03-18T01:58:26;100914.94;;;10.11;78.19
51986;BME280;38002;53.296;6.600;2023-03-18T02:03:28;100917.94;;;9.99;79.00
51986;BME280;38002;53.296;6.600;2023-03-18T02:08:28;100919.53;;;9.92;79.12
51986;BME280;38002;53.296;6.600;2023-03-18T02:13:29;100915.75;;;9.85;79.38
51986;BME280;38002;53.296;6.600;2023-03-18T02:18:37;100918.78;;;9.82;78.64
51986;BME280;38002;53.296;6.600;2023-03-18T02:28:55;100929.88;;;9.71;79.83
51986;BME280;38002;53.296;6.600;2023-03-18T02:33:58;100939.50;;;9.66;80.01
51986;BME280;38002;53.296;6.600;2023-03-18T02:38:59;100938.25;;;9.60;81.27
51986;BME280;38002;53.296;6.600;2023-03-18T02:44:00;100940.09;;;9.60;80.61
51986;BME280;38002;53.296;6.600;2023-03-18T02:49:04;100935.84;;;9.57;80.97
51986;BME280;38002;53.296;6.600;2023-03-18T02:54:10;100943.28;;;9.55;80.85
51986;BME280;38002;53.296;6.600;2023-03-18T02:59:12;100944.59;;;9.51;80.88
51986;BME280;38002;53.296;6.600;2023-03-18T03:04:15;100948.22;;;9.42;80.62
51986;BME280;38002;53.296;6.600;2023-03-18T03:09:16;100965.81;;;9.38;80.29
51986;BME280;38002;53.296;6.600;2023-03-18T03:14:16;100971.28;;;9.28;81.36
51986;BME280;38002;53.296;6.600;2023-03-18T03:19:17;100969.09;;;9.14;83.27
51986;BME280;38002;53.296;6.600;2023-03-18T03:24:17;100973.28;;;9.08;82.82
51986;BME280;38002;53.296;6.600;2023-03-18T03:29:18;100967.44;;;9.03;81.62
51986;BME280;38002;53.296;6.600;2023-03-18T03:34:19;100976.72;;;9.01;81.63
51986;BME280;38002;53.296;6.600;2023-03-18T03:39:19;100981.44;;;8.99;82.00
51986;BME280;38002;53.296;6.600;2023-03-18T03:44:20;100978.31;;;8.94;82.34
51986;BME280;38002;53.296;6.600;2023-03-18T03:49:20;100997.75;;;8.89;82.72
51986;BME280;38002;53.296;6.600;2023-03-18T03:54:21;100992.94;;;8.83;83.17
51986;BME280;38002;53.296;6.600;2023-03-18T03:59:24;101002.34;;;8.79;83.32
51986;BME280;38002;53.296;6.600;2023-03-18T04:04:25;101013.66;;;8.75;82.47
51986;BME280;38002;53.296;6.600;2023-03-18T04:09:25;101016.50;;;8.73;83.39
51986;BME280;38002;53.296;6.600;2023-03-18T04:14:26;101024.94;;;8.70;83.37
51986;BME280;38002;53.296;6.600;2023-03-18T04:19:26;101033.19;;;8.69;83.45
51986;BME280;38002;53.296;6.600;2023-03-18T04:24:28;101028.94;;;8.66;83.45
51986;BME280;38002;53.296;6.600;2023-03-18T04:29:28;101037.06;;;8.66;83.30
51986;BME280;38002;53.296;6.600;2023-03-18T04:34:29;101040.75;;;8.65;83.20
51986;BME280;38002;53.296;6.600;2023-03-18T04:39:29;101031.78;;;8.64;83.34
51986;BME280;38002;53.296;6.600;2023-03-18T04:44:29;101042.75;;;8.63;84.03
51986;BME280;38002;53.296;6.600;2023-03-18T04:49:30;101037.31;;;8.63;83.85
51986;BME280;38002;53.296;6.600;2023-03-18T04:54:30;101042.91;;;8.61;82.80
51986;BME280;38002;53.296;6.600;2023-03-18T04:59:31;101047.78;;;8.58;83.41
51986;BME280;38002;53.296;6.600;2023-03-18T05:04:31;101057.19;;;8.54;83.23
51986;BME280;38002;53.296;6.600;2023-03-18T05:09:32;101058.50;;;8.50;83.77
51986;BME280;38002;53.296;6.600;2023-03-18T05:14:33;101065.91;;;8.48;83.37
51986;BME280;38002;53.296;6.600;2023-03-18T05:19:33;101073.16;;;8.47;84.28
51986;BME280;38002;53.296;6.600;2023-03-18T05:24:34;101074.03;;;8.48;84.10
51986;BME280;38002;53.296;6.600;2023-03-18T05:29:34;101073.16;;;8.47;83.49
51986;BME280;38002;53.296;6.600;2023-03-18T05:34:36;101071.31;;;8.48;83.77
51986;BME280;38002;53.296;6.600;2023-03-18T05:39:38;101077.72;;;8.47;84.12
51986;BME280;38002;53.296;6.600;2023-03-18T05:44:39;101082.44;;;8.45;83.86
51986;BME280;38002;53.296;6.600;2023-03-18T05:49:39;101088.00;;;8.43;84.28
51986;BME280;38002;53.296;6.600;2023-03-18T05:54:40;101097.00;;;8.44;84.11
51986;BME280;38002;53.296;6.600;2023-03-18T05:59:41;101108.41;;;8.47;84.56
51986;BME280;38002;53.296;6.600;2023-03-18T06:04:43;101103.84;;;8.48;84.53
51986;BME280;38002;53.296;6.600;2023-03-18T06:09:43;101117.09;;;8.51;84.99
51986;BME280;38002;53.296;6.600;2023-03-18T06:14:44;101122.94;;;8.56;84.95
51986;BME280;38002;53.296;6.600;2023-03-18T06:19:45;101116.97;;;8.62;85.05
51986;BME280;38002;53.296;6.600;2023-03-18T06:24:45;101121.78;;;8.68;85.44
51986;BME280;38002;53.296;6.600;2023-03-18T06:29:45;101130.22;;;8.75;84.50
51986;BME280;38002;53.296;6.600;2023-03-18T06:34:46;101134.06;;;8.82;85.85
51986;BME280;38002;53.296;6.600;2023-03-18T06:39:46;101137.06;;;8.88;85.80
51986;BME280;38002;53.296;6.600;2023-03-18T06:44:47;101137.19;;;8.96;85.50
51986;BME280;38002;53.296;6.600;2023-03-18T06:49:50;101147.31;;;9.04;86.00
51986;BME280;38002;53.296;6.600;2023-03-18T06:54:50;101154.03;;;9.09;85.67
51986;BME280;38002;53.296;6.600;2023-03-18T06:59:51;101148.72;;;9.18;85.64
51986;BME280;38002;53.296;6.600;2023-03-18T07:04:53;101163.41;;;9.25;85.71
51986;BME280;38002;53.296;6.600;2023-03-18T07:09:54;101159.13;;;9.32;85.68
51986;BME280;38002;53.296;6.600;2023-03-18T07:14:55;101169.91;;;9.41;85.76
51986;BME280;38002;53.296;6.600;2023-03-18T07:19:55;101183.47;;;9.51;85.85
51986;BME280;38002;53.296;6.600;2023-03-18T07:24:56;101177.03;;;9.62;85.67
51986;BME280;38002;53.296;6.600;2023-03-18T07:29:56;101177.56;;;9.75;85.95
51986;BME280;38002;53.296;6.600;2023-03-18T07:34:57;101189.06;;;9.86;85.88
51986;BME280;38002;53.296;6.600;2023-03-18T07:39:58;101178.00;;;9.97;85.65
51986;BME280;38002;53.296;6.600;2023-03-18T07:44:58;101196.56;;;10.02;86.28
51986;BME280;38002;53.296;6.600;2023-03-18T07:49:59;101190.69;;;10.07;85.85
51986;BME280;38002;53.296;6.600;2023-03-18T07:55:00;101189.38;;;10.11;85.79
51986;BME280;38002;53.296;6.600;2023-03-18T08:00:01;101197.50;;;10.20;85.78
51986;BME280;38002;53.296;6.600;2023-03-18T08:05:02;101192.31;;;10.27;86.69
51986;BME280;38002;53.296;6.600;2023-03-18T08:10:03;101206.88;;;10.35;85.82
51986;BME280;38002;53.296;6.600;2023-03-18T08:15:04;101213.09;;;10.45;86.42
51986;BME280;38002;53.296;6.600;2023-03-18T08:20:05;101210.00;;;10.58;85.52
51986;BME280;38002;53.296;6.600;2023-03-18T08:25:06;101216.63;;;10.73;85.85
51986;BME280;38002;53.296;6.600;2023-03-18T08:30:08;101221.53;;;10.87;86.22
51986;BME280;38002;53.296;6.600;2023-03-18T08:35:09;101225.34;;;10.95;85.59
51986;BME280;38002;53.296;6.600;2023-03-18T08:40:11;101223.69;;;11.02;85.62
51986;BME280;38002;53.296;6.600;2023-03-18T08:45:12;101230.53;;;11.06;85.17
51986;BME280;38002;53.296;6.600;2023-03-18T08:50:13;101219.19;;;11.10;85.14
51986;BME280;38002;53.296;6.600;2023-03-18T08:55:13;101228.13;;;11.20;85.03
51986;BME280;38002;53.296;6.600;2023-03-18T09:00:15;101232.63;;;11.29;84.88
51986;BME280;38002;53.296;6.600;2023-03-18T09:05:16;101230.50;;;11.41;85.10
51986;BME280;38002;53.296;6.600;2023-03-18T09:10:17;101225.13;;;11.49;84.35
51986;BME280;38002;53.296;6.600;2023-03-18T09:15:18;101221.91;;;11.54;84.19
51986;BME280;38002;53.296;6.600;2023-03-18T09:20:22;101207.38;;;11.45;83.77
51986;BME280;38002;53.296;6.600;2023-03-18T09:25:22;101224.50;;;11.55;84.10
51986;BME280;38002;53.296;6.600;2023-03-18T09:30:23;101227.75;;;11.59;84.30
51986;BME280;38002;53.296;6.600;2023-03-18T09:35:25;101233.72;;;11.62;84.16
51986;BME280;38002;53.296;6.600;2023-03-18T09:40:36;101239.22;;;11.70;84.86
51986;BME280;38002;53.296;6.600;2023-03-18T09:46:03;101237.63;;;11.77;84.41
51986;BME280;38002;53.296;6.600;2023-03-18T09:51:09;101247.19;;;11.81;84.08
51986;BME280;38002;53.296;6.600;2023-03-18T09:56:23;101254.53;;;11.89;83.96
51986;BME280;38002;53.296;6.600;2023-03-18T10:01:26;101267.34;;;11.97;83.73
51986;BME280;38002;53.296;6.600;2023-03-18T10:06:27;101264.16;;;12.01;83.04
51986;BME280;38002;53.296;6.600;2023-03-18T10:16:38;101266.78;;;12.53;83.33
51986;BME280;38002;53.296;6.600;2023-03-18T10:21:52;101266.91;;;13.01;82.51
51986;BME280;38002;53.296;6.600;2023-03-18T10:27:02;101253.00;;;13.37;81.49
51986;BME280;38002;53.296;6.600;2023-03-18T10:37:30;101259.22;;;13.94;81.26
51986;BME280;38002;53.296;6.600;2023-03-18T10:42:36;101275.28;;;14.05;80.64
51986;BME280;38002;53.296;6.600;2023-03-18T10:47:40;101270.78;;;14.36;79.98
51986;BME280;38002;53.296;6.600;2023-03-18T10:52:53;101267.84;;;14.77;79.50
51986;BME280;38002;53.296;6.600;2023-03-18T10:57:56;101255.56;;;15.26;79.21
51986;BME280;38002;53.296;6.600;2023-03-18T11:02:57;101266.31;;;15.73;77.68
51986;BME280;38002;53.296;6.600;2023-03-18T11:08:04;101275.06;;;16.06;77.56
51986;BME280;38002;53.296;6.600;2023-03-18T11:13:05;101267.13;;;16.11;76.44
51986;BME280;38002;53.296;6.600;2023-03-18T11:18:13;101266.84;;;16.06;75.87
51986;BME280;38002;53.296;6.600;2023-03-18T11:28:45;101268.22;;;15.73;77.78
51986;BME280;38002;53.296;6.600;2023-03-18T11:33:46;101261.81;;;15.95;76.32
51986;BME280;38002;53.296;6.600;2023-03-18T11:38:56;101270.53;;;16.43;73.76
51986;BME280;38002;53.296;6.600;2023-03-18T11:48:59;101276.09;;;17.14;74.74
51986;BME280;38002;53.296;6.600;2023-03-18T12:10:26;101272.50;;;15.90;74.08
51986;BME280;38002;53.296;6.600;2023-03-18T12:26:01;101269.09;;;15.51;75.02
51986;BME280;38002;53.296;6.600;2023-03-18T12:31:54;101269.31;;;16.30;73.75
51986;BME280;38002;53.296;6.600;2023-03-18T12:47:10;101265.78;;;16.66;71.61
51986;BME280;38002;53.296;6.600;2023-03-18T12:57:36;101250.47;;;17.29;71.15
51986;BME280;38002;53.296;6.600;2023-03-18T13:13:06;101257.53;;;17.16;71.00
51986;BME280;38002;53.296;6.600;2023-03-18T13:18:42;101243.66;;;17.24;66.33
51986;BME280;38002;53.296;6.600;2023-03-18T13:50:36;101245.09;;;17.63;67.97
51986;BME280;38002;53.296;6.600;2023-03-18T13:55:40;101243.84;;;17.44;67.81
51986;BME280;38002;53.296;6.600;2023-03-18T14:00:46;101248.56;;;17.29;68.80
51986;BME280;38002;53.296;6.600;2023-03-18T14:16:50;101245.84;;;16.93;67.35
51986;BME280;38002;53.296;6.600;2023-03-18T14:21:52;101247.72;;;16.71;68.36
51986;BME280;38002;53.296;6.600;2023-03-18T14:31:59;101232.19;;;16.49;68.53
51986;BME280;38002;53.296;6.600;2023-03-18T14:37:14;101238.63;;;16.42;67.95
51986;BME280;38002;53.296;6.600;2023-03-18T14:42:34;101235.44;;;16.38;68.16
51986;BME280;38002;53.296;6.600;2023-03-18T14:47:40;101243.28;;;16.41;69.32
51986;BME280;38002;53.296;6.600;2023-03-18T14:52:49;101230.88;;;16.45;68.45
51986;BME280;38002;53.296;6.600;2023-03-18T14:57:51;101241.56;;;16.40;68.86
51986;BME280;38002;53.296;6.600;2023-03-18T15:03:00;101226.16;;;16.39;68.46
51986;BME280;38002;53.296;6.600;2023-03-18T15:08:01;101222.44;;;16.32;68.97
51986;BME280;38002;53.296;6.600;2023-03-18T15:13:09;101220.50;;;16.26;69.58
51986;BME280;38002;53.296;6.600;2023-03-18T15:18:35;101215.38;;;16.23;68.65
51986;BME280;38002;53.296;6.600;2023-03-18T15:23:39;101221.97;;;16.14;69.39
51986;BME280;38002;53.296;6.600;2023-03-18T15:28:48;101230.03;;;16.01;68.76
51986;BME280;38002;53.296;6.600;2023-03-18T15:34:17;101229.56;;;15.82;67.14
51986;BME280;38002;53.296;6.600;2023-03-18T15:39:53;101231.06;;;15.70;68.92
51986;BME280;38002;53.296;6.600;2023-03-18T15:44:57;101224.13;;;15.60;68.95
51986;BME280;38002;53.296;6.600;2023-03-18T15:50:00;101237.53;;;15.55;69.31
51986;BME280;38002;53.296;6.600;2023-03-18T15:55:28;101231.56;;;15.51;69.03
51986;BME280;38002;53.296;6.600;2023-03-18T16:00:31;101233.59;;;15.49;69.15
51986;BME280;38002;53.296;6.600;2023-03-18T16:05:31;101231.91;;;15.48;69.26
51986;BME280;38002;53.296;6.600;2023-03-18T16:10:32;101228.13;;;15.49;69.48
51986;BME280;38002;53.296;6.600;2023-03-18T16:15:32;101237.91;;;15.52;69.75
51986;BME280;38002;53.296;6.600;2023-03-18T16:20:33;101242.75;;;15.41;69.44
51986;BME280;38002;53.296;6.600;2023-03-18T16:25:33;101247.13;;;15.28;69.93
51986;BME280;38002;53.296;6.600;2023-03-18T16:30:34;101253.59;;;15.12;70.14
51986;BME280;38002;53.296;6.600;2023-03-18T16:35:39;101253.84;;;15.03;70.31
51986;BME280;38002;53.296;6.600;2023-03-18T16:40:40;101247.38;;;14.95;71.01
51986;BME280;38002;53.296;6.600;2023-03-18T16:45:41;101255.72;;;15.02;71.57
51986;BME280;38002;53.296;6.600;2023-03-18T16:50:43;101252.63;;;15.05;71.91
51986;BME280;38002;53.296;6.600;2023-03-18T16:55:50;101260.22;;;14.95;72.33
51986;BME280;38002;53.296;6.600;2023-03-18T17:00:51;101266.78;;;14.86;73.01
51986;BME280;38002;53.296;6.600;2023-03-18T17:05:52;101261.53;;;14.76;72.99
51986;BME280;38002;53.296;6.600;2023-03-18T17:10:55;101284.84;;;14.64;73.48
51986;BME280;38002;53.296;6.600;2023-03-18T17:15:57;101276.53;;;14.58;73.49
51986;BME280;38002;53.296;6.600;2023-03-18T17:20:58;101285.78;;;14.48;73.65
51986;BME280;38002;53.296;6.600;2023-03-18T17:25:59;101294.34;;;14.29;73.82
51986;BME280;38002;53.296;6.600;2023-03-18T17:31:02;101299.19;;;14.11;74.36
51986;BME280;38002;53.296;6.600;2023-03-18T17:36:04;101298.56;;;13.93;74.66
51986;BME280;38002;53.296;6.600;2023-03-18T17:41:13;101309.34;;;13.70;75.05
51986;BME280;38002;53.296;6.600;2023-03-18T17:46:15;101301.97;;;13.46;74.80
51986;BME280;38002;53.296;6.600;2023-03-18T17:51:20;101313.22;;;13.19;75.56
51986;BME280;38002;53.296;6.600;2023-03-18T17:56:26;101309.22;;;12.97;75.42
51986;BME280;38002;53.296;6.600;2023-03-18T18:01:27;101314.13;;;12.86;75.82
51986;BME280;38002;53.296;6.600;2023-03-18T18:06:29;101311.84;;;12.73;76.18
51986;BME280;38002;53.296;6.600;2023-03-18T18:11:32;101313.03;;;12.62;76.55
51986;BME280;38002;53.296;6.600;2023-03-18T18:16:34;101310.44;;;12.53;76.63
51986;BME280;38002;53.296;6.600;2023-03-18T18:21:35;101304.78;;;12.46;76.72
51986;BME280;38002;53.296;6.600;2023-03-18T18:26:36;101304.75;;;12.38;77.27
51986;BME280;38002;53.296;6.600;2023-03-18T18:31:37;101299.94;;;12.32;77.24
51986;BME280;38002;53.296;6.600;2023-03-18T18:36:37;101293.72;;;12.22;77.16
51986;BME280;38002;53.296;6.600;2023-03-18T18:41:39;101294.03;;;12.11;77.54
51986;BME280;38002;53.296;6.600;2023-03-18T18:46:39;101295.00;;;12.02;77.70
51986;BME280;38002;53.296;6.600;2023-03-18T18:51:40;101287.63;;;11.94;78.00
51986;BME280;38002;53.296;6.600;2023-03-18T18:56:40;101280.06;;;11.88;78.10
51986;BME280;38002;53.296;6.600;2023-03-18T19:01:42;101285.84;;;11.85;78.29
51986;BME280;38002;53.296;6.600;2023-03-18T19:06:43;101281.88;;;11.79;78.48
51986;BME280;38002;53.296;6.600;2023-03-18T19:11:45;101283.56;;;11.72;78.57
51986;BME280;38002;53.296;6.600;2023-03-18T19:16:46;101292.31;;;11.66;78.64
51986;BME280;38002;53.296;6.600;2023-03-18T19:21:47;101291.53;;;11.56;79.06
51986;BME280;38002;53.296;6.600;2023-03-18T19:26:50;101291.47;;;11.48;79.00
51986;BME280;38002;53.296;6.600;2023-03-18T19:31:51;101287.16;;;11.37;79.09
51986;BME280;38002;53.296;6.600;2023-03-18T19:36:54;101289.81;;;11.29;79.25
51986;BME280;38002;53.296;6.600;2023-03-18T19:41:55;101293.47;;;11.20;79.03
51986;BME280;38002;53.296;6.600;2023-03-18T19:46:56;101300.84;;;11.10;79.57
51986;BME280;38002;53.296;6.600;2023-03-18T19:52:01;101306.50;;;10.99;79.36
51986;BME280;38002;53.296;6.600;2023-03-18T19:57:04;101313.00;;;10.88;79.29
51986;BME280;38002;53.296;6.600;2023-03-18T20:02:26;101317.97;;;10.75;80.35
51986;BME280;38002;53.296;6.600;2023-03-18T20:07:29;101309.16;;;10.64;80.00
51986;BME280;38002;53.296;6.600;2023-03-18T20:12:35;101311.50;;;10.49;80.38
51986;BME280;38002;53.296;6.600;2023-03-18T20:17:38;101307.59;;;10.34;80.70
51986;BME280;38002;53.296;6.600;2023-03-18T20:22:44;101309.91;;;10.29;80.37
51986;BME280;38002;53.296;6.600;2023-03-18T20:27:46;101305.22;;;10.21;80.40
51986;BME280;38002;53.296;6.600;2023-03-18T20:32:46;101307.94;;;10.12;80.74
51986;BME280;38002;53.296;6.600;2023-03-18T20:37:47;101304.09;;;10.05;81.22
51986;BME280;38002;53.296;6.600;2023-03-18T20:42:49;101312.13;;;9.96;81.46
51986;BME280;38002;53.296;6.600;2023-03-18T20:47:49;101314.88;;;9.87;81.19
51986;BME280;38002;53.296;6.600;2023-03-18T20:52:50;101320.88;;;9.81;81.58
51986;BME280;38002;53.296;6.600;2023-03-18T20:57:52;101317.75;;;9.76;81.02
51986;BME280;38002;53.296;6.600;2023-03-18T21:02:55;101330.19;;;9.69;82.11
51986;BME280;38002;53.296;6.600;2023-03-18T21:07:56;101330.94;;;9.61;82.22
51986;BME280;38002;53.296;6.600;2023-03-18T21:12:57;101328.06;;;9.53;82.10
51986;BME280;38002;53.296;6.600;2023-03-18T21:17:57;101337.09;;;9.44;82.26
51986;BME280;38002;53.296;6.600;2023-03-18T21:22:58;101338.63;;;9.37;82.80
51986;BME280;38002;53.296;6.600;2023-03-18T21:27:59;101340.94;;;9.32;82.10
51986;BME280;38002;53.296;6.600;2023-03-18T21:33:00;101337.06;;;9.25;82.80
51986;BME280;38002;53.296;6.600;2023-03-18T21:38:00;101327.91;;;9.16;83.17
51986;BME280;38002;53.296;6.600;2023-03-18T21:43:01;101328.91;;;9.05;82.96
51986;BME280;38002;53.296;6.600;2023-03-18T21:48:05;101318.50;;;9.01;83.05
51986;BME280;38002;53.296;6.600;2023-03-18T21:53:10;101322.03;;;8.92;83.41
51986;BME280;38002;53.296;6.600;2023-03-18T21:58:18;101314.31;;;8.87;82.89
51986;BME280;38002;53.296;6.600;2023-03-18T22:03:21;101308.59;;;8.81;83.84
51986;BME280;38002;53.296;6.600;2023-03-18T22:08:22;101309.16;;;8.75;84.41
51986;BME280;38002;53.296;6.600;2023-03-18T22:13:25;101298.16;;;8.67;83.54
51986;BME280;38002;53.296;6.600;2023-03-18T22:18:25;101289.16;;;8.66;83.89
51986;BME280;38002;53.296;6.600;2023-03-18T22:23:27;101280.59;;;8.61;84.10
51986;BME280;38002;53.296;6.600;2023-03-18T22:28:30;101284.28;;;8.60;84.90
51986;BME280;38002;53.296;6.600;2023-03-18T22:33:32;101284.28;;;8.60;85.49
51986;BME280;38002;53.296;6.600;2023-03-18T22:38:32;101282.03;;;8.65;84.95
51986;BME280;38002;53.296;6.600;2023-03-18T22:43:36;101292.31;;;8.71;84.67
51986;BME280;38002;53.296;6.600;2023-03-18T22:48:36;101303.59;;;8.76;85.58
51986;BME280;38002;53.296;6.600;2023-03-18T22:53:39;101295.44;;;8.76;86.08
51986;BME280;38002;53.296;6.600;2023-03-18T22:58:40;101296.63;;;8.83;85.18
51986;BME280;38002;53.296;6.600;2023-03-18T23:03:40;101297.75;;;8.90;85.14
51986;BME280;38002;53.296;6.600;2023-03-18T23:08:43;101295.38;;;8.97;85.38
51986;BME280;38002;53.296;6.600;2023-03-18T23:13:46;101294.09;;;9.01;85.34
51986;BME280;38002;53.296;6.600;2023-03-18T23:18:49;101295.94;;;9.10;85.51
51986;BME280;38002;53.296;6.600;2023-03-18T23:23:50;101300.78;;;9.16;85.93
51986;BME280;38002;53.296;6.600;2023-03-18T23:28:51;101305.09;;;9.19;86.33
51986;BME280;38002;53.296;6.600;2023-03-18T23:33:51;101303.50;;;9.26;85.86
51986;BME280;38002;53.296;6.600;2023-03-18T23:38:52;101294.81;;;9.32;86.96
51986;BME280;38002;53.296;6.600;2023-03-18T23:43:52;101292.66;;;9.35;85.66
51986;BME280;38002;53.296;6.600;2023-03-18T23:48:53;101284.09;;;9.40;86.75
51986;BME280;38002;53.296;6.600;2023-03-18T23:53:53;101278.34;;;9.43;86.09
51986;BME280;38002;53.296;6.600;2023-03-18T23:58:54;101263.78;;;9.44;86.31
